sensor_id;sensor_type;location;lat;lon;timestamp;temperature;humidity
4279;DHT22;2153;47.744;10.580;2023-02-28T00:01:46;-4.50;99.90
4279;DHT22;2153;47.744;10.580;2023-02-28T00:04:12;-4.60;99.90
4279;DHT22;2153;47.744;10.580;2023-02-28T00:06:39;-4.60;99.90
4279;DHT22;2153;47.744;10.580;2023-02-28T00:09:08;-4.60;99.90
4279;DHT22;2153;47.744;10.580;2023-02-28T00:11:35;-4.70;99.90
4279;DHT22;2153;47.744;10.580;2023-02-28T00:14:03;-4.70;99.90
4279;DHT22;2153;47.744;10.580;2023-02-28T00:16:30;-4.70;99.90
4279;DHT22;2153;47.744;10.580;2023-02-28T00:18:56;-4.70;99.90
4279;DHT22;2153;47.744;10.580;2023-02-28T00:21:23;-4.70;99.90
4279;DHT22;2153;47.744;10.580;2023-02-28T00:23:50;-4.70;99.90
4279;DHT22;2153;47.744;10.580;2023-02-28T00:26:18;-4.70;99.90
4279;DHT22;2153;47.744;10.580;2023-02-28T00:28:45;-4.70;99.90
4279;DHT22;2153;47.744;10.580;2023-02-28T00:31:11;-4.70;99.90
4279;DHT22;2153;47.744;10.580;2023-02-28T00:33:38;-4.70;99.90
4279;DHT22;2153;47.744;10.580;2023-02-28T00:36:07;-4.70;99.90
4279;DHT22;2153;47.744;10.580;2023-02-28T00:38:34;-4.80;99.90
4279;DHT22;2153;47.744;10.580;2023-02-28T00:41:00;-4.80;99.90
4279;DHT22;2153;47.744;10.580;2023-02-28T00:43:32;-4.80;99.90
4279;DHT22;2153;47.744;10.580;2023-02-28T00:45:59;-4.80;99.90
4279;DHT22;2153;47.744;10.580;2023-02-28T00:48:26;-4.90;99.90
4279;DHT22;2153;47.744;10.580;2023-02-28T00:50:53;-4.90;99.90
4279;DHT22;2153;47.744;10.580;2023-02-28T00:53:20;-4.90;99.90
4279;DHT22;2153;47.744;10.580;2023-02-28T00:55:48;-4.90;99.90
4279;DHT22;2153;47.744;10.580;2023-02-28T00:58:14;-4.90;99.90
4279;DHT22;2153;47.744;10.580;2023-02-28T01:00:43;-4.90;99.90
4279;DHT22;2153;47.744;10.580;2023-02-28T01:03:15;-4.90;99.90
4279;DHT22;2153;47.744;10.580;2023-02-28T01:05:42;-4.90;99.90
4279;DHT22;2153;47.744;10.580;2023-02-28T01:08:09;-4.90;99.90
4279;DHT22;2153;47.744;10.580;2023-02-28T01:10:36;-4.90;99.90
4279;DHT22;2153;47.744;10.580;2023-02-28T01:13:04;-4.90;99.90
4279;DHT22;2153;47.744;10.580;2023-02-28T01:15:30;-5.00;99.90
4279;DHT22;2153;47.744;10.580;2023-02-28T01:17:59;-5.00;99.90
4279;DHT22;2153;47.744;10.580;2023-02-28T01:20:26;-5.00;99.90
4279;DHT22;2153;47.744;10.580;2023-02-28T01:22:53;-5.00;99.90
4279;DHT22;2153;47.744;10.580;2023-02-28T01:25:19;-5.00;99.90
4279;DHT22;2153;47.744;10.580;2023-02-28T01:27:46;-5.00;99.90
4279;DHT22;2153;47.744;10.580;2023-02-28T01:30:13;-5.00;99.90
4279;DHT22;2153;47.744;10.580;2023-02-28T01:32:40;-5.00;99.90
4279;DHT22;2153;47.744;10.580;2023-02-28T01:35:08;-5.00;99.90
4279;DHT22;2153;47.744;10.580;2023-02-28T01:37:35;-5.00;99.90
4279;DHT22;2153;47.744;10.580;2023-02-28T01:40:02;-5.00;99.90
4279;DHT22;2153;47.744;10.580;2023-02-28T01:42:29;-5.00;99.90
4279;DHT22;2153;47.744;10.580;2023-02-28T01:45:02;-5.00;99.90
4279;DHT22;2153;47.744;10.580;2023-02-28T01:47:32;-5.10;99.90
4279;DHT22;2153;47.744;10.580;2023-02-28T01:50:04;-5.00;99.90
4279;DHT22;2153;47.744;10.580;2023-02-28T01:52:33;-5.10;99.90
4279;DHT22;2153;47.744;10.580;2023-02-28T01:55:02;-5.00;99.90
4279;DHT22;2153;47.744;10.580;2023-02-28T01:57:33;-5.10;99.90
4279;DHT22;2153;47.744;10.580;2023-02-28T02:00:05;-5.10;99.90
4279;DHT22;2153;47.744;10.580;2023-02-28T02:02:36;-5.10;99.90
4279;DHT22;2153;47.744;10.580;2023-02-28T02:05:06;-5.10;99.90
4279;DHT22;2153;47.744;10.580;2023-02-28T02:07:37;-5.10;99.90
4279;DHT22;2153;47.744;10.580;2023-02-28T02:10:10;-5.20;99.90
4279;DHT22;2153;47.744;10.580;2023-02-28T02:12:56;-5.20;99.90
4279;DHT22;2153;47.744;10.580;2023-02-28T02:15:31;-5.20;99.90
4279;DHT22;2153;47.744;10.580;2023-02-28T02:18:04;-5.20;99.90
4279;DHT22;2153;47.744;10.580;2023-02-28T02:24:03;-5.20;99.90
4279;DHT22;2153;47.744;10.580;2023-02-28T02:32:47;-5.20;99.90
4279;DHT22;2153;47.744;10.580;2023-02-28T02:35:20;-5.20;99.90
4279;DHT22;2153;47.744;10.580;2023-02-28T02:37:52;-5.20;99.90
4279;DHT22;2153;47.744;10.580;2023-02-28T02:40:27;-5.20;99.90
4279;DHT22;2153;47.744;10.580;2023-02-28T02:43:00;-5.20;99.90
4279;DHT22;2153;47.744;10.580;2023-02-28T02:45:31;-5.20;99.90
4279;DHT22;2153;47.744;10.580;2023-02-28T02:48:02;-5.20;99.90
4279;DHT22;2153;47.744;10.580;2023-02-28T02:50:34;-5.20;99.90
4279;DHT22;2153;47.744;10.580;2023-02-28T02:53:02;-5.20;99.90
4279;DHT22;2153;47.744;10.580;2023-02-28T02:55:32;-5.20;99.90
4279;DHT22;2153;47.744;10.580;2023-02-28T02:58:03;-5.20;99.90
4279;DHT22;2153;47.744;10.580;2023-02-28T03:00:34;-5.20;99.90
4279;DHT22;2153;47.744;10.580;2023-02-28T03:03:02;-5.20;99.90
4279;DHT22;2153;47.744;10.580;2023-02-28T03:05:35;-5.20;99.90
4279;DHT22;2153;47.744;10.580;2023-02-28T03:08:06;-5.20;99.90
4279;DHT22;2153;47.744;10.580;2023-02-28T03:10:36;-5.20;99.90
4279;DHT22;2153;47.744;10.580;2023-02-28T03:13:16;-5.20;99.90
4279;DHT22;2153;47.744;10.580;2023-02-28T03:15:57;-5.20;99.90
4279;DHT22;2153;47.744;10.580;2023-02-28T03:18:30;-5.20;99.90
4279;DHT22;2153;47.744;10.580;2023-02-28T03:21:06;-5.20;99.90
4279;DHT22;2153;47.744;10.580;2023-02-28T03:23:41;-5.20;99.90
4279;DHT22;2153;47.744;10.580;2023-02-28T03:26:16;-5.10;99.90
4279;DHT22;2153;47.744;10.580;2023-02-28T03:28:54;-5.20;99.90
4279;DHT22;2153;47.744;10.580;2023-02-28T03:31:27;-5.20;99.90
4279;DHT22;2153;47.744;10.580;2023-02-28T03:34:01;-5.10;99.90
4279;DHT22;2153;47.744;10.580;2023-02-28T03:36:33;-5.10;99.90
4279;DHT22;2153;47.744;10.580;2023-02-28T03:39:08;-5.20;99.90
4279;DHT22;2153;47.744;10.580;2023-02-28T03:41:40;-5.20;99.90
4279;DHT22;2153;47.744;10.580;2023-02-28T03:44:13;-5.20;99.90
4279;DHT22;2153;47.744;10.580;2023-02-28T03:46:44;-5.20;99.90
4279;DHT22;2153;47.744;10.580;2023-02-28T03:49:16;-5.20;99.90
4279;DHT22;2153;47.744;10.580;2023-02-28T03:51:46;-5.10;99.90
4279;DHT22;2153;47.744;10.580;2023-02-28T03:54:19;-5.20;99.90
4279;DHT22;2153;47.744;10.580;2023-02-28T03:56:51;-5.20;99.90
4279;DHT22;2153;47.744;10.580;2023-02-28T03:59:23;-5.20;99.90
4279;DHT22;2153;47.744;10.580;2023-02-28T04:01:52;-5.20;99.90
4279;DHT22;2153;47.744;10.580;2023-02-28T04:04:21;-5.20;99.90
4279;DHT22;2153;47.744;10.580;2023-02-28T04:06:51;-5.20;99.90
4279;DHT22;2153;47.744;10.580;2023-02-28T04:09:18;-5.30;99.90
4279;DHT22;2153;47.744;10.580;2023-02-28T04:11:48;-5.20;99.90
4279;DHT22;2153;47.744;10.580;2023-02-28T04:14:16;-5.30;99.90
4279;DHT22;2153;47.744;10.580;2023-02-28T04:16:44;-5.30;99.90
4279;DHT22;2153;47.744;10.580;2023-02-28T04:19:12;-5.30;99.90
4279;DHT22;2153;47.744;10.580;2023-02-28T04:21:41;-5.30;99.90
4279;DHT22;2153;47.744;10.580;2023-02-28T04:24:11;-5.40;99.90
4279;DHT22;2153;47.744;10.580;2023-02-28T04:26:40;-5.40;99.90
4279;DHT22;2153;47.744;10.580;2023-02-28T04:29:09;-5.40;99.90
4279;DHT22;2153;47.744;10.580;2023-02-28T04:31:36;-5.30;99.90
4279;DHT22;2153;47.744;10.580;2023-02-28T04:34:03;-5.40;99.90
4279;DHT22;2153;47.744;10.580;2023-02-28T04:36:30;-5.30;99.90
4279;DHT22;2153;47.744;10.580;2023-02-28T04:38:57;-5.30;99.90
4279;DHT22;2153;47.744;10.580;2023-02-28T04:41:25;-5.30;99.90
4279;DHT22;2153;47.744;10.580;2023-02-28T04:43:52;-5.30;99.90
4279;DHT22;2153;47.744;10.580;2023-02-28T04:46:19;-5.40;99.90
4279;DHT22;2153;47.744;10.580;2023-02-28T04:48:46;-5.30;99.90
4279;DHT22;2153;47.744;10.580;2023-02-28T04:51:15;-5.40;99.90
4279;DHT22;2153;47.744;10.580;2023-02-28T04:53:42;-5.40;99.90
4279;DHT22;2153;47.744;10.580;2023-02-28T04:56:12;-5.40;99.90
4279;DHT22;2153;47.744;10.580;2023-02-28T04:58:40;-5.40;99.90
4279;DHT22;2153;47.744;10.580;2023-02-28T05:01:17;-5.40;99.90
4279;DHT22;2153;47.744;10.580;2023-02-28T05:03:44;-5.40;99.90
4279;DHT22;2153;47.744;10.580;2023-02-28T05:06:11;-5.40;99.90
4279;DHT22;2153;47.744;10.580;2023-02-28T05:08:38;-5.40;99.90
4279;DHT22;2153;47.744;10.580;2023-02-28T05:11:08;-5.40;99.90
4279;DHT22;2153;47.744;10.580;2023-02-28T05:13:40;-5.40;99.90
4279;DHT22;2153;47.744;10.580;2023-02-28T05:16:07;-5.40;99.90
4279;DHT22;2153;47.744;10.580;2023-02-28T05:18:33;-5.40;99.90
4279;DHT22;2153;47.744;10.580;2023-02-28T05:21:00;-5.50;99.90
4279;DHT22;2153;47.744;10.580;2023-02-28T05:23:27;-5.50;99.90
4279;DHT22;2153;47.744;10.580;2023-02-28T05:25:55;-5.40;99.90
4279;DHT22;2153;47.744;10.580;2023-02-28T05:28:22;-5.40;99.90
4279;DHT22;2153;47.744;10.580;2023-02-28T05:30:50;-5.40;99.90
4279;DHT22;2153;47.744;10.580;2023-02-28T05:33:17;-5.40;99.90
4279;DHT22;2153;47.744;10.580;2023-02-28T05:35:43;-5.40;99.90
4279;DHT22;2153;47.744;10.580;2023-02-28T05:38:10;-5.40;99.90
4279;DHT22;2153;47.744;10.580;2023-02-28T05:40:38;-5.40;99.90
4279;DHT22;2153;47.744;10.580;2023-02-28T05:43:05;-5.40;99.90
4279;DHT22;2153;47.744;10.580;2023-02-28T05:45:31;-5.50;99.90
4279;DHT22;2153;47.744;10.580;2023-02-28T05:47:59;-5.50;99.90
4279;DHT22;2153;47.744;10.580;2023-02-28T05:50:26;-5.50;99.90
4279;DHT22;2153;47.744;10.580;2023-02-28T05:52:53;-5.60;99.90
4279;DHT22;2153;47.744;10.580;2023-02-28T05:55:20;-5.60;99.90
4279;DHT22;2153;47.744;10.580;2023-02-28T05:57:46;-5.60;99.90
4279;DHT22;2153;47.744;10.580;2023-02-28T06:00:13;-5.60;99.90
4279;DHT22;2153;47.744;10.580;2023-02-28T06:02:43;-5.60;99.90
4279;DHT22;2153;47.744;10.580;2023-02-28T06:05:13;-5.60;99.90
4279;DHT22;2153;47.744;10.580;2023-02-28T06:07:40;-5.50;99.90
4279;DHT22;2153;47.744;10.580;2023-02-28T06:10:09;-5.40;99.90
4279;DHT22;2153;47.744;10.580;2023-02-28T06:12:36;-5.50;99.90
4279;DHT22;2153;47.744;10.580;2023-02-28T06:15:03;-5.50;99.90
4279;DHT22;2153;47.744;10.580;2023-02-28T06:17:30;-5.60;99.90
4279;DHT22;2153;47.744;10.580;2023-02-28T06:19:57;-5.60;99.90
4279;DHT22;2153;47.744;10.580;2023-02-28T06:22:25;-5.50;99.90
4279;DHT22;2153;47.744;10.580;2023-02-28T06:24:52;-5.50;99.90
4279;DHT22;2153;47.744;10.580;2023-02-28T06:27:20;-5.50;99.90
4279;DHT22;2153;47.744;10.580;2023-02-28T06:29:47;-5.50;99.90
4279;DHT22;2153;47.744;10.580;2023-02-28T06:32:14;-5.50;99.90
4279;DHT22;2153;47.744;10.580;2023-02-28T06:34:41;-5.40;99.90
4279;DHT22;2153;47.744;10.580;2023-02-28T06:37:08;-5.50;99.90
4279;DHT22;2153;47.744;10.580;2023-02-28T06:39:36;-5.50;99.90
4279;DHT22;2153;47.744;10.580;2023-02-28T06:42:02;-5.50;99.90
4279;DHT22;2153;47.744;10.580;2023-02-28T06:44:29;-5.50;99.90
4279;DHT22;2153;47.744;10.580;2023-02-28T06:47:00;-5.40;99.90
4279;DHT22;2153;47.744;10.580;2023-02-28T06:49:28;-5.40;99.90
4279;DHT22;2153;47.744;10.580;2023-02-28T06:51:54;-5.40;99.90
4279;DHT22;2153;47.744;10.580;2023-02-28T06:54:21;-5.50;99.90
4279;DHT22;2153;47.744;10.580;2023-02-28T06:56:49;-5.50;99.90
4279;DHT22;2153;47.744;10.580;2023-02-28T06:59:16;-5.50;99.90
4279;DHT22;2153;47.744;10.580;2023-02-28T07:01:43;-5.40;99.90
4279;DHT22;2153;47.744;10.580;2023-02-28T07:04:09;-5.40;99.90
4279;DHT22;2153;47.744;10.580;2023-02-28T07:06:36;-5.30;99.90
4279;DHT22;2153;47.744;10.580;2023-02-28T07:09:03;-5.40;99.90
4279;DHT22;2153;47.744;10.580;2023-02-28T07:11:30;-5.40;99.90
4279;DHT22;2153;47.744;10.580;2023-02-28T07:13:58;-5.40;99.90
4279;DHT22;2153;47.744;10.580;2023-02-28T07:16:25;-5.50;99.90
4279;DHT22;2153;47.744;10.580;2023-02-28T07:18:53;-5.30;99.90
4279;DHT22;2153;47.744;10.580;2023-02-28T07:21:20;-5.30;99.90
4279;DHT22;2153;47.744;10.580;2023-02-28T07:23:47;-5.30;99.90
4279;DHT22;2153;47.744;10.580;2023-02-28T07:26:15;-5.40;99.90
4279;DHT22;2153;47.744;10.580;2023-02-28T07:28:42;-5.40;99.90
4279;DHT22;2153;47.744;10.580;2023-02-28T07:31:11;-5.30;99.90
4279;DHT22;2153;47.744;10.580;2023-02-28T07:33:39;-5.30;99.90
4279;DHT22;2153;47.744;10.580;2023-02-28T07:36:09;-5.30;99.90
4279;DHT22;2153;47.744;10.580;2023-02-28T07:38:39;-5.40;99.90
4279;DHT22;2153;47.744;10.580;2023-02-28T07:41:06;-5.50;99.90
4279;DHT22;2153;47.744;10.580;2023-02-28T07:43:33;-5.30;99.90
4279;DHT22;2153;47.744;10.580;2023-02-28T07:46:02;-5.40;99.90
4279;DHT22;2153;47.744;10.580;2023-02-28T07:48:30;-5.30;99.90
4279;DHT22;2153;47.744;10.580;2023-02-28T07:50:58;-5.30;99.90
4279;DHT22;2153;47.744;10.580;2023-02-28T07:53:25;-5.20;99.90
4279;DHT22;2153;47.744;10.580;2023-02-28T07:55:55;-5.20;99.90
4279;DHT22;2153;47.744;10.580;2023-02-28T07:58:22;-5.20;99.90
4279;DHT22;2153;47.744;10.580;2023-02-28T08:00:48;-5.10;99.90
4279;DHT22;2153;47.744;10.580;2023-02-28T08:03:16;-5.30;99.90
4279;DHT22;2153;47.744;10.580;2023-02-28T08:05:44;-5.20;99.90
4279;DHT22;2153;47.744;10.580;2023-02-28T08:08:10;-5.20;99.90
4279;DHT22;2153;47.744;10.580;2023-02-28T08:10:37;-5.20;99.90
4279;DHT22;2153;47.744;10.580;2023-02-28T08:13:04;-5.20;99.90
4279;DHT22;2153;47.744;10.580;2023-02-28T08:15:31;-5.20;99.90
4279;DHT22;2153;47.744;10.580;2023-02-28T08:17:57;-5.10;99.90
4279;DHT22;2153;47.744;10.580;2023-02-28T08:20:25;-5.00;99.90
4279;DHT22;2153;47.744;10.580;2023-02-28T08:22:53;-5.00;99.90
4279;DHT22;2153;47.744;10.580;2023-02-28T08:25:20;-4.90;99.90
4279;DHT22;2153;47.744;10.580;2023-02-28T08:27:47;-4.90;99.90
4279;DHT22;2153;47.744;10.580;2023-02-28T08:30:14;-4.80;99.90
4279;DHT22;2153;47.744;10.580;2023-02-28T08:32:41;-5.00;99.90
4279;DHT22;2153;47.744;10.580;2023-02-28T08:35:08;-5.00;99.90
4279;DHT22;2153;47.744;10.580;2023-02-28T08:37:35;-4.80;99.90
4279;DHT22;2153;47.744;10.580;2023-02-28T08:40:04;-4.80;99.90
4279;DHT22;2153;47.744;10.580;2023-02-28T08:42:32;-4.60;99.90
4279;DHT22;2153;47.744;10.580;2023-02-28T08:44:58;-4.60;99.90
4279;DHT22;2153;47.744;10.580;2023-02-28T08:47:25;-4.70;99.90
4279;DHT22;2153;47.744;10.580;2023-02-28T08:49:52;-4.70;99.90
4279;DHT22;2153;47.744;10.580;2023-02-28T08:52:19;-4.50;99.90
4279;DHT22;2153;47.744;10.580;2023-02-28T08:54:46;-4.50;99.90
4279;DHT22;2153;47.744;10.580;2023-02-28T08:57:14;-4.40;99.90
4279;DHT22;2153;47.744;10.580;2023-02-28T08:59:40;-4.60;99.90
4279;DHT22;2153;47.744;10.580;2023-02-28T09:02:08;-4.50;99.90
4279;DHT22;2153;47.744;10.580;2023-02-28T09:04:35;-4.40;99.90
4279;DHT22;2153;47.744;10.580;2023-02-28T09:07:02;-4.20;99.90
4279;DHT22;2153;47.744;10.580;2023-02-28T09:09:29;-4.40;99.90
4279;DHT22;2153;47.744;10.580;2023-02-28T09:11:56;-4.30;99.90
4279;DHT22;2153;47.744;10.580;2023-02-28T09:14:24;-4.30;99.90
4279;DHT22;2153;47.744;10.580;2023-02-28T09:16:50;-4.30;99.90
4279;DHT22;2153;47.744;10.580;2023-02-28T09:19:17;-4.20;99.90
4279;DHT22;2153;47.744;10.580;2023-02-28T09:21:44;-4.30;99.90
4279;DHT22;2153;47.744;10.580;2023-02-28T09:24:10;-4.30;99.90
4279;DHT22;2153;47.744;10.580;2023-02-28T09:26:39;-4.10;99.90
4279;DHT22;2153;47.744;10.580;2023-02-28T09:29:06;-4.00;99.90
4279;DHT22;2153;47.744;10.580;2023-02-28T09:31:34;-3.90;99.90
4279;DHT22;2153;47.744;10.580;2023-02-28T09:34:01;-3.90;99.90
4279;DHT22;2153;47.744;10.580;2023-02-28T09:36:28;-4.00;99.90
4279;DHT22;2153;47.744;10.580;2023-02-28T09:38:55;-4.00;99.90
4279;DHT22;2153;47.744;10.580;2023-02-28T09:41:24;-4.00;99.90
4279;DHT22;2153;47.744;10.580;2023-02-28T09:43:55;-3.80;99.90
4279;DHT22;2153;47.744;10.580;2023-02-28T09:46:29;-3.60;99.90
4279;DHT22;2153;47.744;10.580;2023-02-28T09:49:00;-3.60;99.90
4279;DHT22;2153;47.744;10.580;2023-02-28T09:51:46;-3.80;99.90
4279;DHT22;2153;47.744;10.580;2023-02-28T09:54:18;-3.80;99.90
4279;DHT22;2153;47.744;10.580;2023-02-28T09:56:49;-3.50;99.90
4279;DHT22;2153;47.744;10.580;2023-02-28T09:59:29;-3.40;99.90
4279;DHT22;2153;47.744;10.580;2023-02-28T10:02:04;-3.40;99.90
4279;DHT22;2153;47.744;10.580;2023-02-28T10:04:42;-4.00;99.90
4279;DHT22;2153;47.744;10.580;2023-02-28T10:07:19;-3.60;99.90
4279;DHT22;2153;47.744;10.580;2023-02-28T10:09:52;-3.50;99.90
4279;DHT22;2153;47.744;10.580;2023-02-28T10:12:20;-3.20;99.90
4279;DHT22;2153;47.744;10.580;2023-02-28T10:14:50;-3.30;99.90
4279;DHT22;2153;47.744;10.580;2023-02-28T10:17:20;-3.20;99.90
4279;DHT22;2153;47.744;10.580;2023-02-28T10:19:56;-3.30;99.90
4279;DHT22;2153;47.744;10.580;2023-02-28T10:22:27;-3.30;99.90
4279;DHT22;2153;47.744;10.580;2023-02-28T10:24:55;-3.50;99.90
4279;DHT22;2153;47.744;10.580;2023-02-28T10:27:28;-3.30;99.90
4279;DHT22;2153;47.744;10.580;2023-02-28T10:29:56;-3.30;99.90
4279;DHT22;2153;47.744;10.580;2023-02-28T10:32:26;-3.10;99.90
4279;DHT22;2153;47.744;10.580;2023-02-28T10:34:57;-3.10;99.90
4279;DHT22;2153;47.744;10.580;2023-02-28T10:37:25;-3.30;99.90
4279;DHT22;2153;47.744;10.580;2023-02-28T10:39:52;-3.00;99.90
4279;DHT22;2153;47.744;10.580;2023-02-28T10:42:22;-3.10;99.90
4279;DHT22;2153;47.744;10.580;2023-02-28T10:45:05;-3.30;99.90
4279;DHT22;2153;47.744;10.580;2023-02-28T10:47:34;-3.10;99.90
4279;DHT22;2153;47.744;10.580;2023-02-28T10:50:03;-2.80;99.90
4279;DHT22;2153;47.744;10.580;2023-02-28T10:52:37;-2.80;99.90
4279;DHT22;2153;47.744;10.580;2023-02-28T10:55:18;-2.70;99.90
4279;DHT22;2153;47.744;10.580;2023-02-28T10:57:46;-2.90;99.90
4279;DHT22;2153;47.744;10.580;2023-02-28T11:00:16;-2.70;99.90
4279;DHT22;2153;47.744;10.580;2023-02-28T11:02:44;-2.90;99.90
4279;DHT22;2153;47.744;10.580;2023-02-28T11:05:28;-3.00;99.90
4279;DHT22;2153;47.744;10.580;2023-02-28T11:07:57;-2.90;99.90
4279;DHT22;2153;47.744;10.580;2023-02-28T11:10:29;-3.10;99.90
4279;DHT22;2153;47.744;10.580;2023-02-28T11:13:00;-3.00;99.90
4279;DHT22;2153;47.744;10.580;2023-02-28T11:15:29;-3.10;99.90
4279;DHT22;2153;47.744;10.580;2023-02-28T11:17:58;-2.90;99.90
4279;DHT22;2153;47.744;10.580;2023-02-28T11:20:29;-2.70;99.90
4279;DHT22;2153;47.744;10.580;2023-02-28T11:22:58;-2.70;99.90
4279;DHT22;2153;47.744;10.580;2023-02-28T11:25:27;-2.40;99.90
4279;DHT22;2153;47.744;10.580;2023-02-28T11:27:57;-2.30;99.90
4279;DHT22;2153;47.744;10.580;2023-02-28T11:30:29;-2.50;99.90
4279;DHT22;2153;47.744;10.580;2023-02-28T11:32:57;-2.40;99.90
4279;DHT22;2153;47.744;10.580;2023-02-28T11:35:28;-2.80;99.90
4279;DHT22;2153;47.744;10.580;2023-02-28T11:37:57;-2.50;99.90
4279;DHT22;2153;47.744;10.580;2023-02-28T11:40:30;-2.60;99.90
4279;DHT22;2153;47.744;10.580;2023-02-28T11:43:06;-2.70;99.90
4279;DHT22;2153;47.744;10.580;2023-02-28T11:45:45;-2.80;99.90
4279;DHT22;2153;47.744;10.580;2023-02-28T11:48:22;-2.60;99.90
4279;DHT22;2153;47.744;10.580;2023-02-28T11:51:02;-2.50;99.90
4279;DHT22;2153;47.744;10.580;2023-02-28T11:53:49;-2.40;99.90
4279;DHT22;2153;47.744;10.580;2023-02-28T11:56:23;-2.30;99.90
4279;DHT22;2153;47.744;10.580;2023-02-28T11:58:58;-2.60;99.90
4279;DHT22;2153;47.744;10.580;2023-02-28T12:01:42;-2.60;99.90
4279;DHT22;2153;47.744;10.580;2023-02-28T12:04:21;-2.80;99.90
4279;DHT22;2153;47.744;10.580;2023-02-28T12:06:57;-2.60;99.90
4279;DHT22;2153;47.744;10.580;2023-02-28T12:09:35;-2.60;99.90
4279;DHT22;2153;47.744;10.580;2023-02-28T12:12:15;-2.40;99.90
4279;DHT22;2153;47.744;10.580;2023-02-28T12:15:00;-2.20;99.90
4279;DHT22;2153;47.744;10.580;2023-02-28T12:17:43;-2.60;99.90
4279;DHT22;2153;47.744;10.580;2023-02-28T12:20:21;-2.50;99.90
4279;DHT22;2153;47.744;10.580;2023-02-28T12:23:01;-2.70;99.90
4279;DHT22;2153;47.744;10.580;2023-02-28T12:25:49;-2.80;99.90
4279;DHT22;2153;47.744;10.580;2023-02-28T12:28:23;-2.70;99.90
4279;DHT22;2153;47.744;10.580;2023-02-28T12:30:53;-2.70;99.90
4279;DHT22;2153;47.744;10.580;2023-02-28T12:33:26;-2.70;99.90
4279;DHT22;2153;47.744;10.580;2023-02-28T12:35:56;-2.60;99.90
4279;DHT22;2153;47.744;10.580;2023-02-28T12:38:27;-2.70;99.90
4279;DHT22;2153;47.744;10.580;2023-02-28T12:40:58;-2.80;99.90
4279;DHT22;2153;47.744;10.580;2023-02-28T12:43:30;-2.70;99.90
4279;DHT22;2153;47.744;10.580;2023-02-28T12:46:02;-2.50;99.90
4279;DHT22;2153;47.744;10.580;2023-02-28T12:48:34;-2.60;99.90
4279;DHT22;2153;47.744;10.580;2023-02-28T12:51:05;-2.60;99.90
4279;DHT22;2153;47.744;10.580;2023-02-28T12:53:42;-2.50;99.90
4279;DHT22;2153;47.744;10.580;2023-02-28T12:56:16;-2.50;99.90
4279;DHT22;2153;47.744;10.580;2023-02-28T12:58:45;-2.40;99.90
4279;DHT22;2153;47.744;10.580;2023-02-28T13:01:38;-2.70;99.90
4279;DHT22;2153;47.744;10.580;2023-02-28T13:04:28;-2.60;99.90
4279;DHT22;2153;47.744;10.580;2023-02-28T13:10:08;-2.60;99.90
4279;DHT22;2153;47.744;10.580;2023-02-28T13:12:36;-2.70;99.90
4279;DHT22;2153;47.744;10.580;2023-02-28T13:15:18;-2.70;99.90
4279;DHT22;2153;47.744;10.580;2023-02-28T13:17:50;-2.50;99.90
4279;DHT22;2153;47.744;10.580;2023-02-28T13:20:19;-2.50;99.90
4279;DHT22;2153;47.744;10.580;2023-02-28T13:22:47;-2.50;99.90
4279;DHT22;2153;47.744;10.580;2023-02-28T13:25:52;-2.60;99.90
4279;DHT22;2153;47.744;10.580;2023-02-28T13:31:33;-2.70;99.90
4279;DHT22;2153;47.744;10.580;2023-02-28T13:34:19;-2.60;99.90
4279;DHT22;2153;47.744;10.580;2023-02-28T13:36:46;-2.50;99.90
4279;DHT22;2153;47.744;10.580;2023-02-28T13:39:45;-2.60;99.90
4279;DHT22;2153;47.744;10.580;2023-02-28T13:42:47;-2.60;99.90
4279;DHT22;2153;47.744;10.580;2023-02-28T13:45:27;-2.60;99.90
4279;DHT22;2153;47.744;10.580;2023-02-28T13:47:59;-2.50;99.90
4279;DHT22;2153;47.744;10.580;2023-02-28T13:50:30;-2.50;99.90
4279;DHT22;2153;47.744;10.580;2023-02-28T13:53:30;-2.40;99.90
4279;DHT22;2153;47.744;10.580;2023-02-28T13:56:03;-2.40;99.90
4279;DHT22;2153;47.744;10.580;2023-02-28T13:58:54;-2.50;99.90
4279;DHT22;2153;47.744;10.580;2023-02-28T14:01:35;-2.40;99.90
4279;DHT22;2153;47.744;10.580;2023-02-28T14:04:21;-2.60;99.90
4279;DHT22;2153;47.744;10.580;2023-02-28T14:06:55;-2.60;99.90
4279;DHT22;2153;47.744;10.580;2023-02-28T14:09:25;-2.60;99.90
4279;DHT22;2153;47.744;10.580;2023-02-28T14:11:53;-2.60;99.90
4279;DHT22;2153;47.744;10.580;2023-02-28T14:14:54;-2.60;99.90
4279;DHT22;2153;47.744;10.580;2023-02-28T14:17:22;-2.60;99.90
4279;DHT22;2153;47.744;10.580;2023-02-28T14:19:49;-2.80;99.90
4279;DHT22;2153;47.744;10.580;2023-02-28T14:22:34;-2.80;99.90
4279;DHT22;2153;47.744;10.580;2023-02-28T14:25:09;-2.80;99.90
4279;DHT22;2153;47.744;10.580;2023-02-28T14:27:43;-2.80;99.90
4279;DHT22;2153;47.744;10.580;2023-02-28T14:33:26;-2.90;99.90
4279;DHT22;2153;47.744;10.580;2023-02-28T14:36:08;-3.00;99.90
4279;DHT22;2153;47.744;10.580;2023-02-28T14:38:43;-2.80;99.90
4279;DHT22;2153;47.744;10.580;2023-02-28T14:41:19;-2.80;99.90
4279;DHT22;2153;47.744;10.580;2023-02-28T14:43:51;-2.70;99.90
4279;DHT22;2153;47.744;10.580;2023-02-28T14:46:21;-2.80;99.90
4279;DHT22;2153;47.744;10.580;2023-02-28T14:48:49;-2.80;99.90
4279;DHT22;2153;47.744;10.580;2023-02-28T14:51:21;-2.80;99.90
4279;DHT22;2153;47.744;10.580;2023-02-28T14:53:55;-2.70;99.90
4279;DHT22;2153;47.744;10.580;2023-02-28T14:56:24;-2.60;99.90
4279;DHT22;2153;47.744;10.580;2023-02-28T14:58:54;-2.70;99.90
4279;DHT22;2153;47.744;10.580;2023-02-28T15:01:24;-2.70;99.90
4279;DHT22;2153;47.744;10.580;2023-02-28T15:03:59;-2.70;99.90
4279;DHT22;2153;47.744;10.580;2023-02-28T15:06:26;-2.70;99.90
4279;DHT22;2153;47.744;10.580;2023-02-28T15:09:15;-2.50;99.90
4279;DHT22;2153;47.744;10.580;2023-02-28T15:11:46;-2.40;99.90
4279;DHT22;2153;47.744;10.580;2023-02-28T15:14:17;-2.50;99.90
4279;DHT22;2153;47.744;10.580;2023-02-28T15:16:48;-2.50;99.90
4279;DHT22;2153;47.744;10.580;2023-02-28T15:19:21;-2.50;99.90
4279;DHT22;2153;47.744;10.580;2023-02-28T15:21:53;-2.50;99.90
4279;DHT22;2153;47.744;10.580;2023-02-28T15:24:30;-2.60;99.90
4279;DHT22;2153;47.744;10.580;2023-02-28T15:26:59;-2.60;99.90
4279;DHT22;2153;47.744;10.580;2023-02-28T15:29:28;-2.50;99.90
4279;DHT22;2153;47.744;10.580;2023-02-28T15:32:00;-2.60;99.90
4279;DHT22;2153;47.744;10.580;2023-02-28T15:34:33;-2.70;99.90
4279;DHT22;2153;47.744;10.580;2023-02-28T15:37:00;-2.70;99.90
4279;DHT22;2153;47.744;10.580;2023-02-28T15:39:28;-2.70;99.90
4279;DHT22;2153;47.744;10.580;2023-02-28T15:42:10;-2.70;99.90
4279;DHT22;2153;47.744;10.580;2023-02-28T15:44:37;-2.60;99.90
4279;DHT22;2153;47.744;10.580;2023-02-28T15:47:06;-2.70;99.90
4279;DHT22;2153;47.744;10.580;2023-02-28T15:49:45;-2.60;99.90
4279;DHT22;2153;47.744;10.580;2023-02-28T15:52:15;-2.70;99.90
4279;DHT22;2153;47.744;10.580;2023-02-28T15:54:43;-2.70;99.90
4279;DHT22;2153;47.744;10.580;2023-02-28T15:57:14;-2.70;99.90
4279;DHT22;2153;47.744;10.580;2023-02-28T15:59:49;-2.70;99.90
4279;DHT22;2153;47.744;10.580;2023-02-28T16:02:20;-2.70;99.90
4279;DHT22;2153;47.744;10.580;2023-02-28T16:05:02;-2.70;99.90
4279;DHT22;2153;47.744;10.580;2023-02-28T16:07:29;-2.70;99.90
4279;DHT22;2153;47.744;10.580;2023-02-28T16:09:55;-2.70;99.90
4279;DHT22;2153;47.744;10.580;2023-02-28T16:12:26;-2.70;99.90
4279;DHT22;2153;47.744;10.580;2023-02-28T16:14:54;-2.80;99.90
4279;DHT22;2153;47.744;10.580;2023-02-28T16:17:25;-2.80;99.90
4279;DHT22;2153;47.744;10.580;2023-02-28T16:19:53;-2.80;99.90
4279;DHT22;2153;47.744;10.580;2023-02-28T16:22:19;-2.80;99.90
4279;DHT22;2153;47.744;10.580;2023-02-28T16:24:46;-2.70;99.90
4279;DHT22;2153;47.744;10.580;2023-02-28T16:27:19;-2.70;99.90